Time;durP1;ratioP1;P1;durP2;ratioP2;P2;SDS_P1;SDS_P2;PMS_P1;PMS_P2;Temp;Humidity;BMP_temperature;BMP_pressure;BME280_temperature;BME280_humidity;BME280_pressure;Samples;Min_cycle;Max_cycle;Signal;HPM_P1;HPM_P2
2021/09/16 00:02:23;;;;;;;12.27;10.30;;;;;;;;;;10330082;28;20073;-88
2021/09/16 00:07:23;;;;;;;12.97;10.10;;;;;;;;;;10359049;28;20492;-87
2021/09/16 00:12:24;;;;;;;12.85;9.95;;;;;;;;;;10326346;28;20068;-87
2021/09/16 00:17:24;;;;;;;14.63;10.55;;;;;;;;;;10360452;28;20026;-88
2021/09/16 00:22:25;;;;;;;13.60;9.90;;;;;;;;;;10328619;28;20092;-86
2021/09/16 00:27:25;;;;;;;12.57;9.23;;;;;;;;;;10356082;28;20365;-86
2021/09/16 00:32:26;;;;;;;12.57;10.17;;;;;;;;;;10359764;28;20542;-86
2021/09/16 00:37:26;;;;;;;14.23;9.47;;;;;;;;;;10335964;28;20515;-86
2021/09/16 00:42:26;;;;;;;12.00;9.37;;;;;;;;;;10345903;28;20471;-86
2021/09/16 00:47:27;;;;;;;14.00;9.73;;;;;;;;;;10331973;28;20069;-87
2021/09/16 00:52:28;;;;;;;11.63;10.10;;;;;;;;;;10315357;28;20094;-86
2021/09/16 00:57:29;;;;;;;11.07;9.25;;;;;;;;;;10319387;28;20030;-85
2021/09/16 01:02:29;;;;;;;10.35;8.93;;;;;;;;;;10326170;28;20081;-86
2021/09/16 01:07:30;;;;;;;11.97;9.00;;;;;;;;;;10329491;28;20077;-87
2021/09/16 01:12:31;;;;;;;13.55;9.00;;;;;;;;;;10313272;28;20019;-86
2021/09/16 01:17:31;;;;;;;11.45;9.18;;;;;;;;;;10321667;28;20382;-86
2021/09/16 01:22:33;;;;;;;15.57;9.13;;;;;;;;;;10339382;28;20096;-88
2021/09/16 01:27:34;;;;;;;13.45;9.18;;;;;;;;;;10321816;28;20105;-89
2021/09/16 01:32:34;;;;;;;9.87;8.77;;;;;;;;;;10337503;28;20521;-89
2021/09/16 01:37:35;;;;;;;9.83;8.67;;;;;;;;;;10291347;28;20535;-89
2021/09/16 01:42:39;;;;;;;9.70;8.70;;;;;;;;;;10291870;28;20347;-88
2021/09/16 01:47:41;;;;;;;11.98;8.65;;;;;;;;;;10336774;28;20370;-88
2021/09/16 01:52:41;;;;;;;13.90;8.52;;;;;;;;;;10323653;28;20032;-86
2021/09/16 01:57:42;;;;;;;16.15;8.98;;;;;;;;;;10323015;28;20018;-86
2021/09/16 02:02:42;;;;;;;9.30;8.10;;;;;;;;;;10337069;28;20107;-86
2021/09/16 02:07:43;;;;;;;10.48;8.50;;;;;;;;;;10322499;28;20027;-87
2021/09/16 02:12:43;;;;;;;10.20;8.60;;;;;;;;;;10332054;28;20022;-88
2021/09/16 02:17:44;;;;;;;12.60;8.03;;;;;;;;;;10323955;28;20021;-87
2021/09/16 02:22:44;;;;;;;19.07;7.87;;;;;;;;;;10336454;28;20745;-88
2021/09/16 02:27:44;;;;;;;12.70;8.00;;;;;;;;;;10336192;28;20073;-88
2021/09/16 02:32:45;;;;;;;11.27;8.38;;;;;;;;;;10313802;28;20015;-87
2021/09/16 02:37:46;;;;;;;11.77;7.80;;;;;;;;;;10326910;28;20022;-88
2021/09/16 02:42:46;;;;;;;9.10;7.90;;;;;;;;;;10340499;28;20060;-88
2021/09/16 02:47:46;;;;;;;9.37;7.97;;;;;;;;;;10350720;28;20080;-88
2021/09/16 02:52:47;;;;;;;9.10;7.80;;;;;;;;;;10341317;28;20536;-87
2021/09/16 02:57:47;;;;;;;10.33;7.63;;;;;;;;;;10346937;28;20026;-88
2021/09/16 03:02:48;;;;;;;8.30;7.40;;;;;;;;;;10361999;28;20476;-87
2021/09/16 03:07:48;;;;;;;8.57;7.68;;;;;;;;;;10344873;28;20030;-87
2021/09/16 03:12:49;;;;;;;9.82;7.40;;;;;;;;;;10357735;28;20026;-88
2021/09/16 03:17:49;;;;;;;8.77;7.60;;;;;;;;;;10350817;28;20031;-86
2021/09/16 03:22:50;;;;;;;12.45;7.75;;;;;;;;;;10371806;28;20086;-87
2021/09/16 03:27:50;;;;;;;9.68;7.15;;;;;;;;;;10351298;28;20057;-86
2021/09/16 03:32:51;;;;;;;8.00;6.83;;;;;;;;;;10352651;28;20022;-87
2021/09/16 03:37:51;;;;;;;9.33;7.47;;;;;;;;;;10357766;28;20060;-88
2021/09/16 03:42:51;;;;;;;9.97;6.87;;;;;;;;;;10347921;28;20157;-88
2021/09/16 03:47:52;;;;;;;11.63;6.50;;;;;;;;;;10296569;28;20025;-89
2021/09/16 03:52:52;;;;;;;7.85;6.85;;;;;;;;;;10297599;28;20059;-89
2021/09/16 03:57:53;;;;;;;8.60;7.10;;;;;;;;;;10278427;28;20034;-88
2021/09/16 04:02:53;;;;;;;9.70;7.20;;;;;;;;;;10316235;28;20038;-87
2021/09/16 04:07:53;;;;;;;9.73;7.03;;;;;;;;;;10333163;28;20432;-87
2021/09/16 04:12:54;;;;;;;8.27;7.00;;;;;;;;;;10319855;28;20030;-88
2021/09/16 04:17:54;;;;;;;7.43;6.63;;;;;;;;;;10304460;28;20085;-90
2021/09/16 04:22:55;;;;;;;7.57;6.13;;;;;;;;;;10297581;28;20029;-90
2021/09/16 04:27:56;;;;;;;6.57;5.97;;;;;;;;;;10299596;28;20062;-88
2021/09/16 04:32:56;;;;;;;8.63;6.10;;;;;;;;;;10315672;28;20485;-88
2021/09/16 04:37:56;;;;;;;8.50;6.53;;;;;;;;;;10324247;28;20053;-88
2021/09/16 04:42:57;;;;;;;6.87;6.20;;;;;;;;;;10323599;28;20088;-88
2021/09/16 04:47:57;;;;;;;8.20;6.53;;;;;;;;;;10316179;28;20027;-87
2021/09/16 04:52:58;;;;;;;8.33;6.20;;;;;;;;;;10316289;28;20026;-88
2021/09/16 04:57:58;;;;;;;7.43;6.43;;;;;;;;;;10334537;28;20150;-88
2021/09/16 05:02:58;;;;;;;8.00;6.60;;;;;;;;;;10295877;28;20034;-87
2021/09/16 05:07:59;;;;;;;9.13;6.27;;;;;;;;;;10313459;28;20041;-84
2021/09/16 05:13:00;;;;;;;6.82;6.07;;;;;;;;;;10338303;28;20444;-81
2021/09/16 05:18:00;;;;;;;7.70;5.77;;;;;;;;;;10339349;28;20361;-83
2021/09/16 05:23:00;;;;;;;7.00;5.80;;;;;;;;;;10339314;28;20022;-83
2021/09/16 05:28:01;;;;;;;8.40;5.97;;;;;;;;;;10339002;28;20483;-83
2021/09/16 05:33:07;;;;;;;6.72;6.03;;;;;;;;;;10336992;28;20030;-83
2021/09/16 05:38:07;;;;;;;10.45;6.28;;;;;;;;;;10337890;28;20026;-84
2021/09/16 05:43:08;;;;;;;14.27;6.70;;;;;;;;;;10335550;28;20390;-84
2021/09/16 05:48:08;;;;;;;8.23;6.88;;;;;;;;;;10338290;28;20030;-83
2021/09/16 05:53:10;;;;;;;5.97;5.47;;;;;;;;;;10340814;28;20109;-83
2021/09/16 05:58:10;;;;;;;16.08;6.55;;;;;;;;;;10377754;28;20436;-82
2021/09/16 06:03:10;;;;;;;7.97;6.23;;;;;;;;;;10361858;28;20057;-83
2021/09/16 06:08:11;;;;;;;6.97;5.90;;;;;;;;;;10354736;28;20463;-78
2021/09/16 06:13:11;;;;;;;8.20;5.90;;;;;;;;;;10337493;28;20448;-81
2021/09/16 06:18:12;;;;;;;14.88;9.30;;;;;;;;;;10347045;28;20141;-89
2021/09/16 06:23:12;;;;;;;13.03;8.03;;;;;;;;;;10326332;28;20116;-91
2021/09/16 06:28:13;;;;;;;12.87;8.47;;;;;;;;;;10319862;28;20499;-92
2021/09/16 06:33:14;;;;;;;16.55;9.93;;;;;;;;;;10341047;28;20443;-91
2021/09/16 06:38:14;;;;;;;22.30;10.13;;;;;;;;;;10321133;28;20034;-93
2021/09/16 06:43:15;;;;;;;16.70;10.40;;;;;;;;;;10314378;28;20043;-92
2021/09/16 06:48:16;;;;;;;14.57;10.82;;;;;;;;;;10332751;28;20056;-92
2021/09/16 06:53:16;;;;;;;19.63;11.48;;;;;;;;;;10331501;28;20454;-92
2021/09/16 06:58:17;;;;;;;19.40;10.93;;;;;;;;;;10328467;28;20026;-93
2021/09/16 07:03:17;;;;;;;13.82;9.85;;;;;;;;;;10334111;28;20025;-93
2021/09/16 07:08:18;;;;;;;14.38;10.15;;;;;;;;;;10341926;28;20444;-90
2021/09/16 07:13:18;;;;;;;17.23;10.65;;;;;;;;;;10327935;28;20034;-90
2021/09/16 07:18:19;;;;;;;29.33;9.50;;;;;;;;;;10339607;28;20479;-89
2021/09/16 07:23:19;;;;;;;15.52;9.23;;;;;;;;;;10323444;28;20467;-88
2021/09/16 07:28:19;;;;;;;19.03;10.20;;;;;;;;;;10346248;28;20046;-92
2021/09/16 07:33:20;;;;;;;17.70;9.80;;;;;;;;;;10325280;28;20065;-88
2021/09/16 07:38:20;;;;;;;14.32;9.40;;;;;;;;;;10366794;28;20045;-88
2021/09/16 07:43:21;;;;;;;15.13;8.73;;;;;;;;;;10377518;23;20042;-85
2021/09/16 07:48:21;;;;;;;17.97;10.20;;;;;;;;;;10359727;28;20441;-87
2021/09/16 07:53:22;;;;;;;20.73;10.00;;;;;;;;;;10366926;28;20037;-87
2021/09/16 07:58:22;;;;;;;16.70;10.57;;;;;;;;;;10367265;28;20034;-86
2021/09/16 08:03:23;;;;;;;13.65;9.50;;;;;;;;;;10359446;28;20046;-87
2021/09/16 08:08:23;;;;;;;21.70;9.57;;;;;;;;;;10357481;28;20033;-86
2021/09/16 08:13:24;;;;;;;16.43;11.67;;;;;;;;;;10364615;28;20022;-89
2021/09/16 08:18:25;;;;;;;18.27;11.05;;;;;;;;;;10374146;28;20105;-87
2021/09/16 08:23:25;;;;;;;14.80;11.33;;;;;;;;;;10363655;28;20133;-88
2021/09/16 08:28:26;;;;;;;19.90;11.23;;;;;;;;;;10367783;28;20546;-90
2021/09/16 08:33:26;;;;;;;16.45;9.73;;;;;;;;;;10355053;28;20030;-86
2021/09/16 08:38:27;;;;;;;17.87;10.83;;;;;;;;;;10369964;28;20132;-86
2021/09/16 08:43:32;;;;;;;15.18;10.13;;;;;;;;;;10355912;28;20991;-87
2021/09/16 08:48:32;;;;;;;15.80;9.95;;;;;;;;;;10379021;28;20026;-87
2021/09/16 08:53:33;;;;;;;17.98;9.90;;;;;;;;;;10352986;28;20383;-88
2021/09/16 08:58:33;;;;;;;17.67;10.90;;;;;;;;;;10369873;28;20474;-87
2021/09/16 09:03:34;;;;;;;19.60;10.82;;;;;;;;;;10349633;28;20160;-88
2021/09/16 09:08:34;;;;;;;12.82;10.57;;;;;;;;;;10363557;28;20511;-87
2021/09/16 09:13:37;;;;;;;22.93;10.73;;;;;;;;;;10353694;28;20034;-85
2021/09/16 09:18:43;;;;;;;16.02;9.30;;;;;;;;;;10373767;28;20819;-85
2021/09/16 09:23:51;;;;;;;13.48;9.63;;;;;;;;;;10362120;28;20027;-83
2021/09/16 09:28:52;;;;;;;;;;;;;;;;;;10366432;28;20023;-85
2021/09/16 09:33:53;;;;;;;16.58;10.20;;;;;;;;;;10365224;28;19968;-84
2021/09/16 09:39:01;;;;;;;17.17;10.25;;;;;;;;;;10339117;28;20062;-85
2021/09/16 09:44:11;;;;;;;12.38;10.27;;;;;;;;;;10338904;28;20062;-86
2021/09/16 09:49:14;;;;;;;14.75;11.13;;;;;;;;;;10365179;28;20101;-85
2021/09/16 09:54:23;;;;;;;18.23;10.45;;;;;;;;;;10350632;28;20478;-83
2021/09/16 09:59:25;;;;;;;14.98;10.98;;;;;;;;;;10351394;28;20206;-83
2021/09/16 10:04:27;;;;;;;21.55;12.73;;;;;;;;;;10339913;28;20080;-86
2021/09/16 10:09:28;;;;;;;19.35;12.48;;;;;;;;;;10372822;28;20069;-85
2021/09/16 10:14:28;;;;;;;15.52;12.18;;;;;;;;;;10375886;28;20053;-86
2021/09/16 10:19:30;;;;;;;22.00;13.85;;;;;;;;;;10373212;28;20041;-88
2021/09/16 10:24:31;;;;;;;15.52;12.80;;;;;;;;;;10377350;23;20054;-84
2021/09/16 10:29:34;;;;;;;15.32;12.93;;;;;;;;;;10335089;28;20034;-85
2021/09/16 10:34:50;;;;;;;24.75;14.38;;;;;;;;;;10331922;28;20393;-86
2021/09/16 10:39:52;;;;;;;19.33;14.48;;;;;;;;;;10309861;28;20049;-86
2021/09/16 10:45:07;;;;;;;25.02;14.95;;;;;;;;;;10334247;28;20026;-85
2021/09/16 10:50:18;;;;;;;21.65;14.48;;;;;;;;;;10304773;28;20061;-85
2021/09/16 10:55:37;;;;;;;22.52;14.18;;;;;;;;;;10316260;28;20450;-85
2021/09/16 11:00:39;;;;;;;22.40;13.27;;;;;;;;;;10332268;28;20030;-84
2021/09/16 11:05:43;;;;;;;17.90;13.73;;;;;;;;;;10331940;28;20030;-84
2021/09/16 11:10:43;;;;;;;22.15;15.65;;;;;;;;;;10316885;28;20042;-85
2021/09/16 11:15:44;;;;;;;21.27;16.30;;;;;;;;;;10334687;28;20445;-84
2021/09/16 11:20:46;;;;;;;21.63;15.65;;;;;;;;;;10333959;28;20501;-84
2021/09/16 11:25:49;;;;;;;21.10;16.02;;;;;;;;;;10329260;28;20489;-84
2021/09/16 11:30:50;;;;;;;20.38;14.55;;;;;;;;;;10331304;28;20041;-85
2021/09/16 11:35:50;;;;;;;19.35;13.90;;;;;;;;;;10315550;28;20034;-84
2021/09/16 11:40:51;;;;;;;27.60;15.27;;;;;;;;;;10339213;28;20034;-85
2021/09/16 11:45:51;;;;;;;29.57;18.13;;;;;;;;;;10328897;28;20030;-85
2021/09/16 11:50:53;;;;;;;32.75;17.55;;;;;;;;;;10331333;28;20464;-85
2021/09/16 11:56:14;;;;;;;21.08;15.05;;;;;;;;;;10314707;28;20477;-85
2021/09/16 12:01:16;;;;;;;27.73;16.80;;;;;;;;;;10327899;28;20109;-85
2021/09/16 12:06:17;;;;;;;29.95;16.52;;;;;;;;;;10317652;28;20038;-84
2021/09/16 12:11:23;;;;;;;23.08;15.10;;;;;;;;;;10329689;28;20458;-84
2021/09/16 12:16:32;;;;;;;34.25;17.83;;;;;;;;;;10318777;28;20037;-85
2021/09/16 12:21:43;;;;;;;36.25;17.45;;;;;;;;;;10328495;28;20093;-86
2021/09/16 12:26:50;;;;;;;32.63;19.08;;;;;;;;;;10302596;28;20034;-84
2021/09/16 12:32:07;;;;;;;25.15;16.70;;;;;;;;;;10328826;28;20410;-82
2021/09/16 12:37:15;;;;;;;19.20;12.18;;;;;;;;;;10308964;28;20493;-82
2021/09/16 12:42:35;;;;;;;18.80;12.37;;;;;;;;;;10330043;28;20042;-81
2021/09/16 12:47:46;;;;;;;23.60;12.57;;;;;;;;;;10327442;28;20037;-82
2021/09/16 12:52:47;;;;;;;16.95;10.73;;;;;;;;;;10329211;28;20450;-89
2021/09/16 12:57:47;;;;;;;21.67;11.93;;;;;;;;;;10333055;28;20034;-90
2021/09/16 13:02:52;;;;;;;21.50;11.50;;;;;;;;;;10338510;28;20030;-89
2021/09/16 13:08:11;;;;;;;26.75;11.25;;;;;;;;;;10318205;28;20030;-87
2021/09/16 13:13:15;;;;;;;17.85;10.32;;;;;;;;;;10332637;28;20169;-86
2021/09/16 13:18:15;;;;;;;27.75;10.93;;;;;;;;;;10335232;28;20080;-85
2021/09/16 13:23:16;;;;;;;22.40;10.13;;;;;;;;;;10332630;28;20050;-86
2021/09/16 13:28:16;;;;;;;18.17;9.43;;;;;;;;;;10336534;28;20041;-84
2021/09/16 13:33:17;;;;;;;17.23;8.47;;;;;;;;;;10336898;28;20042;-86
2021/09/16 13:38:17;;;;;;;19.00;9.07;;;;;;;;;;10335196;28;20571;-84
2021/09/16 13:43:18;;;;;;;21.17;9.23;;;;;;;;;;10338287;28;20444;-85
2021/09/16 13:48:18;;;;;;;18.90;9.03;;;;;;;;;;10321549;28;20444;-85
2021/09/16 13:53:19;;;;;;;12.30;8.33;;;;;;;;;;10334440;28;20446;-86
2021/09/16 13:58:20;;;;;;;14.07;8.55;;;;;;;;;;10334218;28;20026;-86
2021/09/16 14:03:20;;;;;;;16.55;7.38;;;;;;;;;;10319039;28;20450;-88
2021/09/16 14:08:21;;;;;;;14.80;7.83;;;;;;;;;;10319453;28;20026;-88
2021/09/16 14:13:21;;;;;;;18.48;7.40;;;;;;;;;;10335718;28;20432;-84
2021/09/16 14:18:21;;;;;;;16.53;7.47;;;;;;;;;;10333992;28;20145;-84
2021/09/16 14:23:22;;;;;;;12.13;7.03;;;;;;;;;;10304891;28;20045;-86
2021/09/16 14:28:23;;;;;;;12.32;7.05;;;;;;;;;;10317173;28;20030;-86
2021/09/16 14:33:24;;;;;;;12.40;7.13;;;;;;;;;;10318115;28;20037;-85
2021/09/16 14:38:24;;;;;;;15.45;7.07;;;;;;;;;;10334182;28;20034;-85
2021/09/16 14:43:25;;;;;;;12.17;6.80;;;;;;;;;;10333564;28;20037;-87
2021/09/16 14:48:26;;;;;;;14.32;7.38;;;;;;;;;;10304202;28;20428;-88
2021/09/16 14:53:27;;;;;;;13.20;6.85;;;;;;;;;;10312152;28;20042;-89
2021/09/16 14:58:28;;;;;;;13.17;6.70;;;;;;;;;;10309802;28;20058;-87
2021/09/16 15:03:28;;;;;;;10.63;6.83;;;;;;;;;;10332003;28;20096;-86
2021/09/16 15:08:29;;;;;;;8.93;6.33;;;;;;;;;;10310212;28;20460;-87
2021/09/16 15:13:29;;;;;;;12.40;6.40;;;;;;;;;;10331243;28;20386;-88
2021/09/16 15:18:30;;;;;;;12.87;6.53;;;;;;;;;;10313606;28;20065;-85
2021/09/16 15:23:30;;;;;;;8.83;5.53;;;;;;;;;;10314845;28;20492;-85
2021/09/16 15:28:31;;;;;;;13.00;6.22;;;;;;;;;;10316943;28;20464;-85
2021/09/16 15:33:32;;;;;;;9.87;5.63;;;;;;;;;;10327835;28;20026;-87
2021/09/16 15:38:33;;;;;;;9.77;5.32;;;;;;;;;;10328039;28;21033;-87
2021/09/16 15:43:33;;;;;;;7.73;5.20;;;;;;;;;;10329402;28;20088;-86
2021/09/16 15:48:33;;;;;;;11.07;5.57;;;;;;;;;;10307184;28;20421;-85
2021/09/16 15:53:34;;;;;;;11.52;5.32;;;;;;;;;;10328742;28;20485;-86
2021/09/16 15:58:35;;;;;;;11.45;5.25;;;;;;;;;;10330287;28;20124;-85
2021/09/16 16:03:37;;;;;;;10.90;5.05;;;;;;;;;;10311748;28;20097;-86
2021/09/16 16:08:37;;;;;;;10.80;5.40;;;;;;;;;;10328253;28;20033;-85
2021/09/16 16:13:37;;;;;;;11.02;5.07;;;;;;;;;;10325370;28;20018;-87
2021/09/16 16:18:38;;;;;;;9.93;5.07;;;;;;;;;;10314768;28;20125;-83
2021/09/16 16:23:38;;;;;;;7.67;5.50;;;;;;;;;;10331703;28;20496;-84
2021/09/16 16:28:39;;;;;;;8.77;4.83;;;;;;;;;;10305569;28;20476;-85
2021/09/16 16:33:39;;;;;;;6.50;4.17;;;;;;;;;;10329952;28;20453;-85
2021/09/16 16:38:40;;;;;;;8.57;4.40;;;;;;;;;;10329763;28;20522;-84
2021/09/16 16:43:40;;;;;;;9.93;4.93;;;;;;;;;;10336430;28;20110;-85
2021/09/16 16:48:40;;;;;;;7.33;4.20;;;;;;;;;;10327938;28;20482;-84
2021/09/16 16:53:41;;;;;;;10.57;4.70;;;;;;;;;;10331613;28;20460;-84
2021/09/16 16:58:41;;;;;;;10.75;4.55;;;;;;;;;;10327517;28;20436;-85
2021/09/16 17:03:42;;;;;;;10.20;4.57;;;;;;;;;;10326706;28;20037;-84
2021/09/16 17:08:42;;;;;;;7.07;4.00;;;;;;;;;;10328441;28;20463;-85
2021/09/16 17:13:43;;;;;;;11.10;4.05;;;;;;;;;;10336413;28;20463;-87
2021/09/16 17:18:43;;;;;;;6.50;3.97;;;;;;;;;;10337527;28;20520;-85
2021/09/16 17:23:43;;;;;;;10.13;3.97;;;;;;;;;;10334521;28;20454;-83
2021/09/16 17:28:44;;;;;;;9.57;4.33;;;;;;;;;;10332151;28;20106;-86
2021/09/16 17:33:45;;;;;;;9.15;4.97;;;;;;;;;;10316446;28;20042;-86
2021/09/16 17:38:48;;;;;;;10.65;3.80;;;;;;;;;;10336263;28;20022;-86
2021/09/16 17:43:55;;;;;;;6.95;3.58;;;;;;;;;;10336570;28;20390;-86
2021/09/16 17:48:55;;;;;;;7.80;3.92;;;;;;;;;;10336529;28;20355;-86
2021/09/16 17:53:56;;;;;;;8.25;3.70;;;;;;;;;;10336037;28;20026;-86
2021/09/16 17:58:56;;;;;;;6.63;3.60;;;;;;;;;;10336627;28;20489;-86
2021/09/16 18:03:57;;;;;;;7.97;3.53;;;;;;;;;;10334959;28;20037;-87
2021/09/16 18:08:57;;;;;;;9.38;3.38;;;;;;;;;;10330410;28;20088;-87
2021/09/16 18:13:58;;;;;;;7.43;3.60;;;;;;;;;;10327478;28;20033;-86
2021/09/16 18:18:58;;;;;;;8.05;4.05;;;;;;;;;;10320890;28;20042;-85
2021/09/16 18:23:59;;;;;;;11.03;3.57;;;;;;;;;;10315877;28;20086;-86
2021/09/16 18:28:59;;;;;;;8.37;3.80;;;;;;;;;;10325136;28;20157;-86
2021/09/16 18:34:00;;;;;;;7.00;3.50;;;;;;;;;;10286349;28;20120;-86
2021/09/16 18:39:03;;;;;;;8.00;4.10;;;;;;;;;;10333846;28;20638;-86
2021/09/16 18:44:03;;;;;;;7.07;3.90;;;;;;;;;;10329896;28;20035;-86
2021/09/16 18:49:04;;;;;;;8.10;3.40;;;;;;;;;;10325709;28;20463;-86
2021/09/16 18:54:04;;;;;;;8.17;3.30;;;;;;;;;;10320865;28;20038;-87
2021/09/16 18:59:05;;;;;;;11.37;4.50;;;;;;;;;;10323993;28;20535;-85
2021/09/16 19:04:05;;;;;;;6.43;3.80;;;;;;;;;;10327528;28;20045;-85
2021/09/16 19:09:05;;;;;;;7.60;3.67;;;;;;;;;;10327839;28;20499;-85
2021/09/16 19:14:06;;;;;;;5.90;3.22;;;;;;;;;;10333614;28;20085;-87
2021/09/16 19:19:06;;;;;;;5.50;2.80;;;;;;;;;;10332203;28;20060;-87
2021/09/16 19:24:07;;;;;;;5.27;3.30;;;;;;;;;;10332281;28;20046;-86
2021/09/16 19:29:07;;;;;;;4.88;3.03;;;;;;;;;;10333009;28;20022;-86
2021/09/16 19:34:09;;;;;;;5.00;3.37;;;;;;;;;;10320520;28;20065;-87
2021/09/16 19:39:09;;;;;;;6.63;3.30;;;;;;;;;;10322619;28;20440;-86
2021/09/16 19:44:10;;;;;;;8.00;4.10;;;;;;;;;;10417976;23;20054;-89
2021/09/16 19:49:11;;;;;;;5.88;2.90;;;;;;;;;;10356260;28;20028;-88
2021/09/16 19:54:11;;;;;;;8.20;3.20;;;;;;;;;;10386096;28;20026;-88
2021/09/16 19:59:11;;;;;;;8.77;3.38;;;;;;;;;;10386026;28;20041;-88
2021/09/16 20:04:12;;;;;;;8.67;3.10;;;;;;;;;;10386197;28;20042;-88
2021/09/16 20:09:13;;;;;;;7.88;3.40;;;;;;;;;;10380287;28;20033;-87
2021/09/16 20:14:13;;;;;;;6.65;3.17;;;;;;;;;;10398374;28;20053;-89
2021/09/16 20:19:14;;;;;;;10.65;3.28;;;;;;;;;;10398708;28;20358;-87
2021/09/16 20:24:16;;;;;;;14.30;7.70;;;;;;;;;;10360045;28;20482;-81
2021/09/16 20:29:17;;;;;;;13.07;5.85;;;;;;;;;;10386720;28;20484;-82
2021/09/16 20:34:17;;;;;;;11.77;6.13;;;;;;;;;;10357647;28;20033;-81
2021/09/16 20:39:18;;;;;;;16.13;7.80;;;;;;;;;;10394435;28;20041;-80
2021/09/16 20:44:20;;;;;;;12.93;7.07;;;;;;;;;;10391030;28;20084;-80
2021/09/16 20:49:21;;;;;;;12.73;7.30;;;;;;;;;;10387414;28;20429;-79
2021/09/16 20:54:21;;;;;;;16.27;8.25;;;;;;;;;;10391104;28;20032;-79
2021/09/16 20:59:21;;;;;;;14.38;7.93;;;;;;;;;;10380736;28;20033;-80
2021/09/16 21:04:22;;;;;;;21.20;7.83;;;;;;;;;;10393965;28;20087;-81
2021/09/16 21:09:22;;;;;;;18.87;7.33;;;;;;;;;;10393220;28;20458;-82
2021/09/16 21:14:23;;;;;;;13.65;7.85;;;;;;;;;;10385389;28;20436;-83
2021/09/16 21:19:23;;;;;;;12.70;7.60;;;;;;;;;;10381001;28;20037;-82
2021/09/16 21:24:24;;;;;;;14.87;8.03;;;;;;;;;;10379093;28;20446;-80
2021/09/16 21:29:25;;;;;;;13.35;6.45;;;;;;;;;;10383402;28;20044;-81
2021/09/16 21:34:25;;;;;;;14.32;6.40;;;;;;;;;;10377328;28;20110;-80
2021/09/16 21:39:26;;;;;;;11.67;6.50;;;;;;;;;;10361429;28;20478;-80
2021/09/16 21:44:26;;;;;;;13.93;6.90;;;;;;;;;;10379109;28;20471;-79
2021/09/16 21:49:26;;;;;;;20.23;7.67;;;;;;;;;;10354809;28;20025;-80
2021/09/16 21:54:27;;;;;;;20.33;5.80;;;;;;;;;;10379213;28;20447;-82
2021/09/16 21:59:27;;;;;;;31.83;5.20;;;;;;;;;;10363762;28;20045;-81
2021/09/16 22:04:28;;;;;;;16.20;4.27;;;;;;;;;;10371667;28;20030;-81
2021/09/16 22:09:28;;;;;;;15.90;4.27;;;;;;;;;;10363344;28;20064;-81
2021/09/16 22:14:28;;;;;;;7.13;3.57;;;;;;;;;;10377106;28;20135;-81
2021/09/16 22:19:29;;;;;;;8.30;3.40;;;;;;;;;;10365794;28;20038;-81
2021/09/16 22:24:29;;;;;;;8.80;3.13;;;;;;;;;;10363832;28;20081;-83
2021/09/16 22:29:30;;;;;;;12.80;4.55;;;;;;;;;;10363975;28;20506;-81
2021/09/16 22:34:30;;;;;;;12.20;3.75;;;;;;;;;;10365093;28;20056;-82
2021/09/16 22:39:30;;;;;;;13.60;3.63;;;;;;;;;;10363441;28;20080;-84
2021/09/16 22:44:32;;;;;;;8.57;3.23;;;;;;;;;;10368169;28;21217;-82
2021/09/16 22:49:33;;;;;;;7.88;3.13;;;;;;;;;;10361062;28;20455;-82
2021/09/16 22:54:33;;;;;;;8.35;3.03;;;;;;;;;;10374608;28;20061;-83
2021/09/16 22:59:34;;;;;;;10.30;3.23;;;;;;;;;;10362133;28;20116;-82
2021/09/16 23:04:34;;;;;;;5.07;2.87;;;;;;;;;;10362309;28;20030;-82
2021/09/16 23:09:34;;;;;;;6.53;2.97;;;;;;;;;;10375394;28;20527;-83
2021/09/16 23:14:35;;;;;;;8.37;3.30;;;;;;;;;;10361733;28;20030;-83
2021/09/16 23:19:37;;;;;;;10.13;2.60;;;;;;;;;;10374741;28;20478;-81
2021/09/16 23:24:38;;;;;;;7.85;2.72;;;;;;;;;;10357692;28;20482;-82
2021/09/16 23:29:38;;;;;;;7.93;3.00;;;;;;;;;;10365956;28;20497;-81
2021/09/16 23:34:38;;;;;;;5.67;2.77;;;;;;;;;;10333117;28;20026;-81
2021/09/16 23:39:39;;;;;;;7.37;2.83;;;;;;;;;;10359354;28;20511;-80
2021/09/16 23:44:40;;;;;;;5.32;2.70;;;;;;;;;;10362004;28;20046;-80
2021/09/16 23:49:40;;;;;;;7.80;2.42;;;;;;;;;;10361715;28;20026;-81
2021/09/16 23:54:41;;;;;;;7.43;2.50;;;;;;;;;;10364841;28;20026;-82
2021/09/16 23:59:41;;;;;;;4.63;2.90;;;;;;;;;;10372951;28;20444;-82
